createdAt,value
2023-03-08T00:01:47.017Z,97582.66
2023-03-08T00:04:15.911Z,97588.25
2023-03-08T00:06:50.523Z,97586.94
2023-03-08T00:09:20.521Z,97575.69
2023-03-08T00:11:48.657Z,97579.06
2023-03-08T00:14:16.755Z,97582.53
2023-03-08T00:16:45.195Z,97583.69
2023-03-08T00:19:13.650Z,97577.88
2023-03-08T00:21:41.895Z,97572.28
2023-03-08T00:24:10.385Z,97574.13
2023-03-08T00:26:40.055Z,97572.63
2023-03-08T00:29:08.504Z,97569.63
2023-03-08T00:31:36.883Z,97572.88
2023-03-08T00:34:05.513Z,97573.66
2023-03-08T00:36:34.180Z,97570.22
2023-03-08T00:39:02.296Z,97573.66
2023-03-08T00:41:30.440Z,97577.97
2023-03-08T00:43:59.972Z,97575.34
2023-03-08T00:46:28.643Z,97571.38
2023-03-08T00:48:56.865Z,97566.03
2023-03-08T00:51:42.709Z,97571.06
2023-03-08T00:54:11.188Z,97568.00
2023-03-08T00:56:39.358Z,97561.69
2023-03-08T00:59:09.233Z,97570.22
2023-03-08T01:01:37.522Z,97561.63
2023-03-08T01:04:05.998Z,97564.34
2023-03-08T01:06:33.704Z,97559.31
2023-03-08T01:09:01.820Z,97559.91
2023-03-08T01:11:29.784Z,97547.22
2023-03-08T01:13:57.752Z,97547.81
2023-03-08T01:16:29.024Z,97552.09
2023-03-08T01:18:57.256Z,97535.22
2023-03-08T01:21:25.331Z,97517.81
2023-03-08T01:23:53.192Z,97519.38
2023-03-08T01:26:22.664Z,97515.22
2023-03-08T01:28:51.446Z,97509.66
2023-03-08T01:31:21.188Z,97515.59
2023-03-08T01:33:50.350Z,97510.25
2023-03-08T01:36:20.134Z,97510.38
2023-03-08T01:38:48.058Z,97501.66
2023-03-08T01:41:18.162Z,97501.06
2023-03-08T01:43:46.885Z,97504.91
2023-03-08T01:46:25.525Z,97503.13
2023-03-08T01:48:57.858Z,97500.47
2023-03-08T01:51:31.650Z,97504.97
2023-03-08T01:54:00.211Z,97494.59
2023-03-08T01:56:28.116Z,97494.88
2023-03-08T01:58:55.827Z,97491.09
2023-03-08T02:01:23.442Z,97486.88
2023-03-08T02:03:51.459Z,97481.81
2023-03-08T02:06:20.712Z,97487.16
2023-03-08T02:08:48.445Z,97461.50
2023-03-08T02:11:16.554Z,97468.69
2023-03-08T02:13:44.254Z,97465.03
2023-03-08T02:16:14.515Z,97452.19
2023-03-08T02:18:53.806Z,97456.09
2023-03-08T02:21:22.957Z,97456.22
2023-03-08T02:23:51.904Z,97448.47
2023-03-08T02:26:19.727Z,97455.16
2023-03-08T02:28:47.880Z,97446.06
2023-03-08T02:31:16.197Z,97443.47
2023-03-08T02:33:43.774Z,97443.03
2023-03-08T02:36:11.631Z,97443.81
2023-03-08T02:38:39.265Z,97449.94
2023-03-08T02:41:08.467Z,97446.78
2023-03-08T02:43:36.991Z,97436.84
2023-03-08T02:46:04.556Z,97426.13
2023-03-08T02:48:32.156Z,97429.09
2023-03-08T02:50:59.741Z,97429.78
2023-03-08T02:53:27.351Z,97424.78
2023-03-08T02:55:54.950Z,97432.53
2023-03-08T02:58:23.881Z,97432.75
2023-03-08T03:00:51.441Z,97426.06
2023-03-08T03:03:19.056Z,97418.31
2023-03-08T03:05:46.662Z,97419.56
2023-03-08T03:08:14.175Z,97407.16
2023-03-08T03:10:41.816Z,97414.44
2023-03-08T03:13:09.903Z,97411.75
2023-03-08T03:15:40.547Z,97415.56
2023-03-08T03:18:08.413Z,97410.47
2023-03-08T03:20:36.034Z,97412.72
2023-03-08T03:23:04.025Z,97401.38
2023-03-08T03:25:31.594Z,97406.75
2023-03-08T03:27:59.148Z,97403.00
2023-03-08T03:30:26.655Z,97409.78
2023-03-08T03:32:55.621Z,97392.16
2023-03-08T03:35:23.157Z,97403.72
2023-03-08T03:37:50.688Z,97400.13
2023-03-08T03:40:18.499Z,97398.00
2023-03-08T03:42:46.073Z,97397.31
2023-03-08T03:45:13.637Z,97394.84
2023-03-08T03:47:41.202Z,97393.91
2023-03-08T03:50:11.665Z,97393.22
2023-03-08T03:52:39.209Z,97385.81
2023-03-08T03:55:08.388Z,97382.28
2023-03-08T03:57:35.929Z,97379.41
2023-03-08T04:00:04.238Z,97376.25
2023-03-08T04:02:31.907Z,97373.06
2023-03-08T04:04:59.535Z,97366.50
2023-03-08T04:07:28.507Z,97376.25
2023-03-08T04:09:56.263Z,97376.72
2023-03-08T04:12:23.823Z,97382.84
2023-03-08T04:14:51.422Z,97374.53
2023-03-08T04:17:18.970Z,97374.19
2023-03-08T04:19:46.533Z,97373.78
2023-03-08T04:22:14.109Z,97366.38
2023-03-08T04:24:43.085Z,97365.53
2023-03-08T04:27:10.613Z,97360.16
2023-03-08T04:29:38.177Z,97355.25
2023-03-08T04:32:06.562Z,97363.19
2023-03-08T04:34:34.148Z,97368.47
2023-03-08T04:37:01.709Z,97366.00
2023-03-08T04:39:29.527Z,97355.25
2023-03-08T04:41:58.403Z,97350.72
2023-03-08T04:44:25.969Z,97346.50
2023-03-08T04:46:53.783Z,97350.03
2023-03-08T04:49:21.503Z,97354.16
2023-03-08T04:51:49.049Z,97348.63
2023-03-08T04:54:16.684Z,97351.44
2023-03-08T04:56:44.333Z,97347.59
2023-03-08T04:59:13.259Z,97348.25
2023-03-08T05:01:42.585Z,97347.56
2023-03-08T05:04:11.411Z,97333.56
2023-03-08T05:06:39.072Z,97336.38
2023-03-08T05:09:06.858Z,97333.03
2023-03-08T05:11:34.409Z,97327.97
2023-03-08T05:14:01.966Z,97331.19
2023-03-08T05:16:30.975Z,97325.16
2023-03-08T05:18:58.609Z,97318.81
2023-03-08T05:21:26.252Z,97314.03
2023-03-08T05:23:53.813Z,97318.47
2023-03-08T05:26:21.580Z,97309.88
2023-03-08T05:28:49.169Z,97305.16
2023-03-08T05:31:18.964Z,97303.91
2023-03-08T05:33:50.905Z,97298.34
2023-03-08T05:36:19.136Z,97293.41
2023-03-08T05:38:46.915Z,97291.63
2023-03-08T05:41:16.151Z,97284.75
2023-03-08T05:43:43.943Z,97274.25
2023-03-08T05:46:13.156Z,97270.94
2023-03-08T05:48:40.944Z,97273.97
2023-03-08T05:51:11.870Z,97263.97
2023-03-08T05:53:39.784Z,97262.16
2023-03-08T05:56:11.502Z,97256.16
2023-03-08T05:58:41.447Z,97275.44
2023-03-08T06:01:14.865Z,97274.25
2023-03-08T06:03:42.472Z,97264.25
2023-03-08T06:06:11.638Z,97251.09
2023-03-08T06:08:39.780Z,97247.50
2023-03-08T06:11:07.713Z,97243.63
2023-03-08T06:13:35.496Z,97238.63
2023-03-08T06:16:03.980Z,97227.78
2023-03-08T06:18:31.826Z,97258.97
2023-03-08T06:21:00.315Z,97252.72
2023-03-08T06:23:30.618Z,97247.56
2023-03-08T06:25:58.649Z,97233.72
2023-03-08T06:28:27.565Z,97239.63
2023-03-08T06:30:55.646Z,97220.81
2023-03-08T06:33:24.936Z,97202.75
2023-03-08T06:35:59.426Z,97237.44
2023-03-08T06:38:30.145Z,97223.66
2023-03-08T06:40:58.535Z,97233.22
2023-03-08T06:43:26.604Z,97233.16
2023-03-08T06:45:54.338Z,97193.66
2023-03-08T06:48:22.275Z,97213.72
2023-03-08T06:50:50.113Z,97216.75
2023-03-08T06:53:17.732Z,97211.63
2023-03-08T06:55:46.766Z,97225.34
2023-03-08T06:58:14.377Z,97230.47
2023-03-08T07:00:42.047Z,97214.44
2023-03-08T07:03:09.653Z,97221.16
2023-03-08T07:05:37.221Z,97213.66
2023-03-08T07:08:05.508Z,97196.56
2023-03-08T07:10:33.326Z,97191.22
2023-03-08T07:13:02.229Z,97206.28
2023-03-08T07:15:29.847Z,97201.00
2023-03-08T07:17:59.050Z,97198.38
2023-03-08T07:20:28.485Z,97185.78
2023-03-08T07:22:56.173Z,97167.00
2023-03-08T07:25:23.785Z,97170.09
2023-03-08T07:27:51.386Z,97163.34
2023-03-08T07:30:20.630Z,97158.22
2023-03-08T07:32:48.398Z,97124.22
2023-03-08T07:35:16.770Z,97132.28
2023-03-08T07:37:45.867Z,97154.31
2023-03-08T07:40:14.090Z,97159.94
2023-03-08T07:42:41.644Z,97122.56
2023-03-08T07:45:10.234Z,97088.75
2023-03-08T07:47:39.283Z,97123.06
2023-03-08T07:50:07.310Z,97101.72
2023-03-08T07:52:34.895Z,97108.41
2023-03-08T07:55:03.260Z,97095.19
2023-03-08T07:57:30.861Z,97078.44
2023-03-08T07:59:58.454Z,97076.75
2023-03-08T08:02:26.038Z,97091.94
2023-03-08T08:04:54.975Z,97091.16
2023-03-08T08:07:22.590Z,97054.66
2023-03-08T08:09:50.265Z,97041.88
2023-03-08T08:12:17.947Z,97069.84
2023-03-08T08:14:45.992Z,97062.91
2023-03-08T08:17:13.658Z,97042.06
2023-03-08T08:19:41.241Z,97064.41
2023-03-08T08:22:10.280Z,97061.75
2023-03-08T08:24:37.875Z,97050.81
2023-03-08T08:27:06.083Z,97024.13
2023-03-08T08:29:33.800Z,97034.28
2023-03-08T08:32:01.486Z,97025.72
2023-03-08T08:34:29.038Z,97024.41
2023-03-08T08:36:57.294Z,97019.81
2023-03-08T08:39:26.330Z,97014.91
2023-03-08T08:41:53.908Z,97005.81
2023-03-08T08:44:21.544Z,96999.56
2023-03-08T08:46:49.102Z,96995.84
2023-03-08T08:49:17.163Z,96989.84
2023-03-08T08:51:44.709Z,96996.56
2023-03-08T08:54:12.349Z,96991.53
2023-03-08T08:56:42.987Z,96981.63
2023-03-08T08:59:11.506Z,96987.84
2023-03-08T09:01:43.464Z,96981.25
2023-03-08T09:04:11.667Z,96971.44
2023-03-08T09:06:39.429Z,96967.34
2023-03-08T09:09:07.839Z,96963.16
2023-03-08T09:11:42.391Z,96965.66
2023-03-08T09:14:21.098Z,96969.25
2023-03-08T09:16:48.982Z,96953.25
2023-03-08T09:19:16.719Z,96967.50
2023-03-08T09:21:43.863Z,96971.50
2023-03-08T09:24:12.135Z,96964.56
2023-03-08T09:26:38.976Z,96944.59
2023-03-08T09:29:07.551Z,96949.78
2023-03-08T09:31:38.839Z,96957.16
2023-03-08T09:34:06.794Z,96959.47
2023-03-08T09:36:34.577Z,96942.63
2023-03-08T09:39:02.205Z,96949.09
2023-03-08T09:41:49.869Z,96944.72
2023-03-08T09:44:26.976Z,96915.09
2023-03-08T09:46:58.415Z,96950.00
2023-03-08T09:49:29.144Z,96941.13
2023-03-08T09:52:04.225Z,96933.69
2023-03-08T09:54:34.240Z,96924.34
2023-03-08T09:57:02.850Z,96912.09
2023-03-08T09:59:34.687Z,96914.38
2023-03-08T10:02:07.397Z,96902.97
2023-03-08T10:04:42.743Z,96913.78
2023-03-08T10:07:22.357Z,96905.59
2023-03-08T10:09:57.031Z,96904.88
2023-03-08T10:12:29.516Z,96905.19
2023-03-08T10:15:02.659Z,96898.78
2023-03-08T10:17:40.023Z,96894.00
2023-03-08T10:20:18.068Z,96893.09
2023-03-08T10:22:47.165Z,96898.44
2023-03-08T10:25:24.198Z,96892.81
2023-03-08T10:27:54.162Z,96896.91
2023-03-08T10:30:23.726Z,96885.72
2023-03-08T10:32:56.762Z,96876.56
2023-03-08T10:35:33.010Z,96876.13
2023-03-08T10:38:00.620Z,96862.13
2023-03-08T10:40:28.448Z,96865.50
2023-03-08T10:43:00.963Z,96855.00
2023-03-08T10:45:29.726Z,96857.06
2023-03-08T10:48:00.740Z,96844.41
2023-03-08T10:50:30.026Z,96840.66
2023-03-08T10:53:08.177Z,96842.81
2023-03-08T10:55:43.934Z,96830.72
2023-03-08T10:58:28.517Z,96828.59
2023-03-08T11:00:57.785Z,96805.34
2023-03-08T11:03:27.442Z,96825.38
2023-03-08T11:05:57.886Z,96817.72
2023-03-08T11:08:28.334Z,96829.66
2023-03-08T11:11:03.380Z,96813.38
2023-03-08T11:13:33.283Z,96819.88
2023-03-08T11:16:09.927Z,96826.69
2023-03-08T11:18:49.595Z,96826.75
2023-03-08T11:21:24.066Z,96822.16
2023-03-08T11:23:57.999Z,96823.16
2023-03-08T11:26:31.120Z,96828.34
2023-03-08T11:29:15.817Z,96824.75
2023-03-08T11:31:49.509Z,96818.22
2023-03-08T11:34:42.390Z,96810.41
2023-03-08T11:37:15.491Z,96814.47
2023-03-08T11:39:46.791Z,96810.03
2023-03-08T11:42:21.128Z,96800.97
2023-03-08T11:45:04.078Z,96810.53
2023-03-08T11:47:45.002Z,96786.44
2023-03-08T11:50:17.922Z,96800.91
2023-03-08T11:52:54.294Z,96797.38
2023-03-08T11:55:34.650Z,96805.84
2023-03-08T11:58:05.996Z,96794.19
2023-03-08T12:00:37.243Z,96793.03
2023-03-08T12:03:10.019Z,96795.56
2023-03-08T12:05:41.785Z,96783.44
2023-03-08T12:08:15.282Z,96783.69
2023-03-08T12:10:45.500Z,96784.22
2023-03-08T12:13:18.250Z,96788.94
2023-03-08T12:15:48.385Z,96775.56
2023-03-08T12:18:19.845Z,96788.41
2023-03-08T12:20:47.962Z,96775.06
2023-03-08T12:23:24.323Z,96775.31
2023-03-08T12:25:53.935Z,96763.38
2023-03-08T12:28:26.351Z,96757.25
2023-03-08T12:31:03.587Z,96773.31
2023-03-08T12:33:33.050Z,96761.53
2023-03-08T12:36:02.875Z,96759.78
2023-03-08T12:38:35.385Z,96755.00
2023-03-08T12:41:03.714Z,96763.31
2023-03-08T12:43:33.053Z,96761.38
2023-03-08T12:46:07.798Z,96752.81
2023-03-08T12:48:37.611Z,96754.31
2023-03-08T12:51:09.769Z,96758.16
2023-03-08T12:53:41.851Z,96744.63
2023-03-08T12:56:25.179Z,96753.66
2023-03-08T12:58:55.441Z,96747.38
2023-03-08T13:01:32.633Z,96746.31
2023-03-08T13:04:01.573Z,96749.69
2023-03-08T13:06:46.082Z,96745.31
2023-03-08T13:09:20.106Z,96730.94
2023-03-08T13:11:51.864Z,96733.75
2023-03-08T13:14:29.353Z,96725.09
2023-03-08T13:16:57.407Z,96752.06
2023-03-08T13:19:28.934Z,96746.19
2023-03-08T13:22:01.875Z,96739.94
2023-03-08T13:24:40.047Z,96759.19
2023-03-08T13:27:25.592Z,96763.84
2023-03-08T13:29:55.056Z,96758.75
2023-03-08T13:32:24.351Z,96752.59
2023-03-08T13:35:06.272Z,96751.59
2023-03-08T13:37:33.896Z,96740.56
2023-03-08T13:40:05.091Z,96721.28
2023-03-08T13:42:32.788Z,96727.16
2023-03-08T13:45:20.584Z,96741.03
2023-03-08T13:47:49.328Z,96724.81
2023-03-08T13:50:22.439Z,96730.22
2023-03-08T13:52:50.119Z,96737.69
2023-03-08T13:55:22.783Z,96721.75
2023-03-08T13:57:52.945Z,96711.56
2023-03-08T14:00:31.489Z,96727.53
2023-03-08T14:02:59.438Z,96723.88
2023-03-08T14:05:28.328Z,96706.25
2023-03-08T14:08:00.775Z,96708.03
2023-03-08T14:10:37.915Z,96720.63
2023-03-08T14:13:06.881Z,96712.03
2023-03-08T14:15:36.643Z,96732.09
2023-03-08T14:18:05.040Z,96726.31
2023-03-08T14:20:32.887Z,96717.53
2023-03-08T14:23:00.896Z,96707.09
2023-03-08T14:25:30.637Z,96704.31
2023-03-08T14:27:59.774Z,96693.78
2023-03-08T14:30:28.763Z,96674.19
2023-03-08T14:33:00.183Z,96695.63
2023-03-08T14:35:30.087Z,96702.91
2023-03-08T14:37:58.906Z,96691.34
2023-03-08T14:40:31.151Z,96689.56
2023-03-08T14:43:02.632Z,96698.44
2023-03-08T14:45:34.510Z,96678.19
2023-03-08T14:48:03.834Z,96684.81
2023-03-08T14:50:36.795Z,96670.00
2023-03-08T14:53:04.788Z,96656.00
2023-03-08T14:55:34.352Z,96649.38
2023-03-08T14:58:04.867Z,96623.16
2023-03-08T15:00:32.776Z,96646.31
2023-03-08T15:03:01.806Z,96632.75
2023-03-08T15:05:30.333Z,96634.94
2023-03-08T15:08:00.041Z,96640.00
2023-03-08T15:10:30.390Z,96622.72
2023-03-08T15:12:58.268Z,96630.84
2023-03-08T15:15:27.561Z,96624.63
2023-03-08T15:17:55.138Z,96627.47
2023-03-08T15:20:23.300Z,96627.78
2023-03-08T15:22:53.999Z,96625.69
2023-03-08T15:25:25.405Z,96594.59
2023-03-08T15:27:53.215Z,96622.22
2023-03-08T15:30:25.754Z,96630.50
2023-03-08T15:32:54.962Z,96635.09
2023-03-08T15:35:23.305Z,96630.69
2023-03-08T15:37:51.037Z,96637.91
2023-03-08T15:40:20.447Z,96639.25
2023-03-08T15:42:48.066Z,96613.94
2023-03-08T15:45:15.902Z,96625.53
2023-03-08T15:47:44.037Z,96624.16
2023-03-08T15:50:17.394Z,96637.78
2023-03-08T15:52:45.213Z,96628.13
2023-03-08T15:55:14.243Z,96628.88
2023-03-08T15:57:42.431Z,96629.28
2023-03-08T16:00:12.612Z,96627.78
2023-03-08T16:02:40.857Z,96623.78
2023-03-08T16:05:10.166Z,96617.47
2023-03-08T16:07:39.339Z,96608.94
2023-03-08T16:10:08.760Z,96615.88
2023-03-08T16:12:36.320Z,96616.81
2023-03-08T16:15:04.425Z,96617.53
2023-03-08T16:17:32.412Z,96610.50
2023-03-08T16:20:00.117Z,96612.81
2023-03-08T16:22:29.013Z,96608.72
2023-03-08T16:24:58.099Z,96609.56
2023-03-08T16:27:25.749Z,96606.84
2023-03-08T16:29:54.003Z,96605.88
2023-03-08T16:32:21.650Z,96595.84
2023-03-08T16:34:51.056Z,96605.38
2023-03-08T16:37:19.613Z,96611.75
2023-03-08T16:39:49.710Z,96585.91
2023-03-08T16:42:19.188Z,96581.28
2023-03-08T16:44:49.655Z,96573.53
2023-03-08T16:47:17.468Z,96564.22
2023-03-08T16:49:45.234Z,96578.84
2023-03-08T16:52:12.956Z,96594.84
2023-03-08T16:54:40.621Z,96576.72
2023-03-08T16:57:18.523Z,96607.22
2023-03-08T16:59:48.695Z,96576.03
2023-03-08T17:02:18.357Z,96611.97
2023-03-08T17:04:46.669Z,96587.94
2023-03-08T17:07:14.809Z,96575.75
2023-03-08T17:09:42.502Z,96613.28
2023-03-08T17:12:10.484Z,96596.50
2023-03-08T17:14:38.516Z,96604.53
2023-03-08T17:17:07.513Z,96592.50
2023-03-08T17:19:35.220Z,96605.00
2023-03-08T17:22:02.759Z,96631.25
2023-03-08T17:24:32.281Z,96609.72
2023-03-08T17:27:00.296Z,96608.28
2023-03-08T17:29:28.245Z,96626.47
2023-03-08T17:31:55.813Z,96589.53
2023-03-08T17:34:24.784Z,96621.13
2023-03-08T17:36:53.398Z,96592.78
2023-03-08T17:39:21.408Z,96601.69
2023-03-08T17:41:49.100Z,96622.28
2023-03-08T17:44:16.839Z,96616.75
2023-03-08T17:46:44.445Z,96636.22
2023-03-08T17:49:13.088Z,96639.41
2023-03-08T17:51:42.514Z,96680.47
2023-03-08T17:54:11.819Z,96660.88
2023-03-08T17:56:40.912Z,96667.78
2023-03-08T17:59:08.577Z,96674.44
2023-03-08T18:01:36.195Z,96651.19
2023-03-08T18:04:05.568Z,96632.56
2023-03-08T18:06:35.482Z,96641.47
2023-03-08T18:09:06.702Z,96690.69
2023-03-08T18:11:37.445Z,96686.41
2023-03-08T18:14:05.624Z,96686.81
2023-03-08T18:16:34.101Z,96661.56
2023-03-08T18:19:02.409Z,96676.75
2023-03-08T18:21:31.361Z,96664.81
2023-03-08T18:23:59.122Z,96671.84
2023-03-08T18:26:28.887Z,96693.31
2023-03-08T18:28:56.657Z,96687.75
2023-03-08T18:31:26.314Z,96697.72
2023-03-08T18:33:55.513Z,96699.28
2023-03-08T18:36:24.548Z,96696.75
2023-03-08T18:38:52.166Z,96684.81
2023-03-08T18:41:22.275Z,96692.03
2023-03-08T18:43:51.984Z,96695.47
2023-03-08T18:46:20.017Z,96680.78
2023-03-08T18:48:50.816Z,96672.91
2023-03-08T18:51:18.993Z,96669.34
2023-03-08T18:53:46.701Z,96674.88
2023-03-08T18:56:14.299Z,96666.41
2023-03-08T18:58:41.963Z,96667.22
2023-03-08T19:01:13.432Z,96657.69
2023-03-08T19:03:41.967Z,96662.38
2023-03-08T19:06:09.971Z,96663.94
2023-03-08T19:08:37.564Z,96676.28
2023-03-08T19:11:13.245Z,96657.94
2023-03-08T19:13:41.129Z,96667.03
2023-03-08T19:16:19.062Z,96675.69
2023-03-08T19:18:47.365Z,96667.91
2023-03-08T19:21:19.203Z,96654.19
2023-03-08T19:23:46.911Z,96658.38
2023-03-08T19:26:32.093Z,96665.47
2023-03-08T19:29:00.720Z,96659.84
2023-03-08T19:31:29.952Z,96666.69
2023-03-08T19:33:57.680Z,96620.22
2023-03-08T19:36:25.644Z,96641.75
2023-03-08T19:38:53.201Z,96648.78
2023-03-08T19:41:20.805Z,96650.63
2023-03-08T19:43:48.700Z,96643.81
2023-03-08T19:46:17.993Z,96651.28
2023-03-08T19:48:47.432Z,96661.28
2023-03-08T19:51:15.691Z,96655.31
2023-03-08T19:53:43.937Z,96653.13
2023-03-08T19:56:15.200Z,96657.00
2023-03-08T19:58:43.043Z,96661.50
2023-03-08T20:01:12.471Z,96665.25
2023-03-08T20:03:40.366Z,96659.38
2023-03-08T20:06:09.708Z,96660.13
2023-03-08T20:08:38.288Z,96655.09
2023-03-08T20:11:06.190Z,96654.25
2023-03-08T20:13:33.844Z,96645.03
2023-03-08T20:16:01.391Z,96644.53
2023-03-08T20:18:29.264Z,96642.16
2023-03-08T20:20:58.980Z,96653.41
2023-03-08T20:23:27.946Z,96654.88
2023-03-08T20:25:55.556Z,96654.59
2023-03-08T20:28:23.124Z,96661.16
2023-03-08T20:30:50.770Z,96676.69
2023-03-08T20:33:18.634Z,96673.84
2023-03-08T20:35:47.086Z,96672.56
2023-03-08T20:38:14.723Z,96674.00
2023-03-08T20:40:43.711Z,96651.00
2023-03-08T20:43:11.909Z,96658.81
2023-03-08T20:45:40.428Z,96656.03
2023-03-08T20:48:08.119Z,96632.31
2023-03-08T20:50:35.722Z,96666.81
2023-03-08T20:53:03.478Z,96660.00
2023-03-08T20:55:31.058Z,96649.72
2023-03-08T20:58:00.097Z,96662.13
2023-03-08T21:00:27.670Z,96653.09
2023-03-08T21:02:56.288Z,96651.06
2023-03-08T21:05:24.110Z,96654.88
2023-03-08T21:07:51.724Z,96652.75
2023-03-08T21:10:19.484Z,96636.91
2023-03-08T21:12:47.070Z,96639.53
2023-03-08T21:15:16.040Z,96632.25
2023-03-08T21:17:43.682Z,96629.66
2023-03-08T21:20:12.542Z,96619.50
2023-03-08T21:22:40.101Z,96594.22
2023-03-08T21:25:08.269Z,96601.59
2023-03-08T21:27:36.464Z,96619.09
2023-03-08T21:30:04.257Z,96604.66
2023-03-08T21:32:33.390Z,96587.41
2023-03-08T21:35:01.007Z,96606.78
2023-03-08T21:37:28.757Z,96573.69
2023-03-08T21:39:56.820Z,96594.00
2023-03-08T21:42:25.004Z,96614.75
2023-03-08T21:44:52.683Z,96606.78
2023-03-08T21:47:20.248Z,96593.16
2023-03-08T21:49:49.513Z,96608.63
2023-03-08T21:52:17.328Z,96597.19
2023-03-08T21:54:44.920Z,96598.84
2023-03-08T21:57:12.734Z,96597.78
2023-03-08T21:59:40.400Z,96595.50
2023-03-08T22:02:10.462Z,96586.56
2023-03-08T22:04:39.138Z,96596.59
2023-03-08T22:07:08.099Z,96590.53
2023-03-08T22:09:35.760Z,96586.06
2023-03-08T22:12:03.844Z,96586.81
2023-03-08T22:14:33.310Z,96582.22
2023-03-08T22:17:01.261Z,96588.09
2023-03-08T22:19:28.952Z,96590.94
2023-03-08T22:21:58.453Z,96563.66
2023-03-08T22:24:27.947Z,96568.44
2023-03-08T22:26:55.490Z,96557.84
2023-03-08T22:29:23.137Z,96554.75
2023-03-08T22:31:50.779Z,96551.69
2023-03-08T22:34:18.442Z,96549.16
2023-03-08T22:36:46.097Z,96542.13
2023-03-08T22:39:13.862Z,96548.91
2023-03-08T22:41:42.910Z,96546.28
2023-03-08T22:44:12.723Z,96532.44
2023-03-08T22:46:40.359Z,96546.91
2023-03-08T22:49:11.547Z,96503.53
2023-03-08T22:51:42.919Z,96540.19
2023-03-08T22:54:15.734Z,96537.69
2023-03-08T22:56:45.050Z,96535.44
2023-03-08T22:59:13.350Z,96530.44
2023-03-08T23:01:41.015Z,96511.94
2023-03-08T23:04:09.387Z,96526.13
2023-03-08T23:06:37.072Z,96515.91
2023-03-08T23:09:06.959Z,96515.19
2023-03-08T23:11:34.972Z,96500.97
2023-03-08T23:14:04.515Z,96504.69
2023-03-08T23:16:32.694Z,96513.66
2023-03-08T23:19:00.592Z,96504.47
2023-03-08T23:21:31.782Z,96502.69
2023-03-08T23:23:59.420Z,96499.94
2023-03-08T23:26:28.508Z,96493.41
2023-03-08T23:28:57.788Z,96482.19
2023-03-08T23:31:29.022Z,96482.19
2023-03-08T23:33:57.511Z,96490.53
2023-03-08T23:36:26.689Z,96485.19
2023-03-08T23:38:55.215Z,96483.50
2023-03-08T23:41:23.012Z,96480.88
2023-03-08T23:43:54.800Z,96474.69
2023-03-08T23:46:22.804Z,96474.69
2023-03-08T23:48:55.253Z,96471.72
2023-03-08T23:51:24.084Z,96472.19
2023-03-08T23:53:52.829Z,96465.63
2023-03-08T23:56:26.507Z,96464.09
2023-03-08T23:58:56.038Z,96459.78
